首页
METAR-TAF:

METAR-TAF

机场 :

佐賀機場

佐賀, 日本

纬度: 33-09N, 经度: 130-18E, 海拔: 2米

当前天气观测

该预报发布于54分钟前的16:00 UTC
风速1节,风向多变
温度 21°C
湿度 88%
气压 1015 hPa
能见度10公里或以上
1500米以下无云,无积雨云

METAR: RJFS 231600Z VRB01KT CAVOK 21/19 Q1015

时间: 01:54 (16:54 UTC)

预报

该预报发布于5小时和46分钟前的11:08 UTC
预报有效从23日的 12点(UTC)到 24日的 18点(UTC)
风速4节,风向北转东北
能见度10公里或以上
少量云层高于3000英尺
成为
从 24日的 12点(UTC)到 24日的 15点(UTC)
风速5节,风向

TAF: RJFS 231108Z 2312/2418 03004KT 9999 FEW030 BECMG 2412/2415 36005KT

超过4000个机场的气象观测和天气预报(METAR&TAF报告)。

可查询的气象台以黄色和红色小点在地图上表示。

将鼠标移到小点上方,可查看气象台名称。

然后点击查看天气观测和预报。

如需切换地图:点击带黑十字的绿色按钮放大地图;点击带横线的绿色按钮缩小地图;或者点击绿色箭头查看邻近地区的地图。


METAR-TAF: